createdAt,value
2022-10-16T00:00:39.376Z,100399.25
2022-10-16T00:03:07.001Z,100395.88
2022-10-16T00:05:34.463Z,100393.16
2022-10-16T00:08:01.223Z,100393.31
2022-10-16T00:10:27.864Z,100400.56
2022-10-16T00:12:54.474Z,100396.19
2022-10-16T00:15:21.200Z,100399.88
2022-10-16T00:17:47.834Z,100401.59
2022-10-16T00:20:14.416Z,100395.81
2022-10-16T00:22:41.226Z,100389.72
2022-10-16T00:25:08.189Z,100393.44
2022-10-16T00:27:35.307Z,100391.72
2022-10-16T00:30:02.000Z,100400.84
2022-10-16T00:32:28.998Z,100400.84
2022-10-16T00:34:55.764Z,100402.22
2022-10-16T00:37:22.368Z,100398.53
2022-10-16T00:39:49.004Z,100402.91
2022-10-16T00:42:19.480Z,100402.91
2022-10-16T00:44:53.470Z,100399.03
2022-10-16T00:47:25.226Z,100400.19
2022-10-16T00:49:56.954Z,100392.25
2022-10-16T00:52:23.744Z,100393.44
2022-10-16T00:54:51.824Z,100400.50
2022-10-16T00:57:18.592Z,100399.84
2022-10-16T00:59:46.062Z,100395.75
2022-10-16T01:02:15.955Z,100399.47
2022-10-16T01:04:53.326Z,100406.19
2022-10-16T01:07:27.430Z,100407.50
2022-10-16T01:10:00.416Z,100405.44
2022-10-16T01:12:44.234Z,100416.06
2022-10-16T01:15:29.040Z,100404.75
2022-10-16T01:18:07.189Z,100409.63
2022-10-16T01:20:41.048Z,100409.94
2022-10-16T01:23:26.241Z,100404.84
2022-10-16T01:26:31.403Z,100408.00
2022-10-16T01:29:18.044Z,100413.41
2022-10-16T01:31:51.414Z,100404.59
2022-10-16T01:34:24.904Z,100415.41
2022-10-16T01:36:57.440Z,100418.81
2022-10-16T01:39:29.302Z,100405.47
2022-10-16T01:42:00.421Z,100410.00
2022-10-16T01:44:32.184Z,100416.13
2022-10-16T01:47:00.445Z,100407.16
2022-10-16T01:49:32.290Z,100413.41
2022-10-16T01:54:34.414Z,100416.50
2022-10-16T01:57:02.296Z,100420.50
2022-10-16T01:59:32.784Z,100427.59
2022-10-16T02:02:07.711Z,100426.22
2022-10-16T02:04:39.555Z,100429.94
2022-10-16T02:07:06.451Z,100431.22
2022-10-16T02:09:35.584Z,100421.75
2022-10-16T02:12:10.461Z,100434.84
2022-10-16T02:14:39.430Z,100433.78
2022-10-16T02:17:15.232Z,100433.94
2022-10-16T02:19:42.937Z,100437.66
2022-10-16T02:22:16.146Z,100430.38
2022-10-16T02:24:51.564Z,100432.69
2022-10-16T02:27:43.202Z,100433.00
2022-10-16T02:30:20.495Z,100432.47
2022-10-16T02:32:50.308Z,100436.69
2022-10-16T02:35:19.743Z,100444.41
2022-10-16T02:37:47.896Z,100451.81
2022-10-16T02:40:14.890Z,100446.00
2022-10-16T02:42:42.051Z,100453.81
2022-10-16T02:45:11.292Z,100445.03
2022-10-16T02:47:38.316Z,100452.44
2022-10-16T02:50:05.462Z,100451.25
2022-10-16T02:52:32.025Z,100436.25
2022-10-16T02:54:58.610Z,100438.22
2022-10-16T02:57:25.553Z,100432.81
2022-10-16T02:59:52.472Z,100431.28
2022-10-16T03:02:19.304Z,100443.09
2022-10-16T03:04:45.925Z,100445.63
2022-10-16T03:07:12.596Z,100446.63
2022-10-16T03:09:39.201Z,100442.25
2022-10-16T03:12:06.040Z,100450.50
2022-10-16T03:14:32.694Z,100453.34
2022-10-16T03:16:59.285Z,100453.34
2022-10-16T03:19:25.830Z,100457.88
2022-10-16T03:21:52.512Z,100455.66
2022-10-16T03:24:19.162Z,100459.34
2022-10-16T03:26:45.838Z,100474.41
2022-10-16T03:29:12.391Z,100472.75
2022-10-16T03:31:38.993Z,100475.59
2022-10-16T03:34:05.643Z,100474.72
2022-10-16T03:36:32.308Z,100478.13
2022-10-16T03:38:58.924Z,100478.44
2022-10-16T03:41:25.530Z,100482.13
2022-10-16T03:43:52.197Z,100478.72
2022-10-16T03:46:18.778Z,100484.41
2022-10-16T03:48:45.344Z,100484.69
2022-10-16T03:51:11.919Z,100487.97
2022-10-16T03:53:38.595Z,100486.56
2022-10-16T03:56:05.406Z,100485.00
2022-10-16T03:58:32.045Z,100494.09
2022-10-16T04:00:58.676Z,100492.53
2022-10-16T04:03:25.392Z,100490.16
2022-10-16T04:05:52.125Z,100499.50
2022-10-16T04:08:19.405Z,100512.31
2022-10-16T04:10:46.368Z,100500.41
2022-10-16T04:13:13.571Z,100504.38
2022-10-16T04:15:40.320Z,100501.00
2022-10-16T04:18:07.232Z,100499.28
2022-10-16T04:20:34.684Z,100497.88
2022-10-16T04:23:01.586Z,100496.78
2022-10-16T04:25:28.334Z,100492.50
2022-10-16T04:27:55.310Z,100505.84
2022-10-16T04:30:23.911Z,100513.22
2022-10-16T04:32:52.272Z,100507.97
2022-10-16T04:35:20.506Z,100511.81
2022-10-16T04:37:47.448Z,100511.81
2022-10-16T04:40:14.597Z,100515.19
2022-10-16T04:42:41.786Z,100502.75
2022-10-16T04:45:12.020Z,100495.94
2022-10-16T04:47:41.585Z,100495.22
2022-10-16T04:50:08.659Z,100493.22
2022-10-16T04:55:07.273Z,100497.63
2022-10-16T04:57:34.452Z,100499.59
2022-10-16T05:00:01.519Z,100509.41
2022-10-16T05:02:28.260Z,100497.63
2022-10-16T05:04:54.900Z,100510.09
2022-10-16T05:07:21.545Z,100518.91
2022-10-16T05:09:48.172Z,100524.28
2022-10-16T05:12:14.806Z,100525.69
2022-10-16T05:14:41.884Z,100536.47
2022-10-16T05:17:08.474Z,100541.84
2022-10-16T05:19:35.142Z,100546.25
2022-10-16T05:22:01.774Z,100538.19
2022-10-16T05:24:28.404Z,100551.38
2022-10-16T05:26:55.063Z,100552.06
2022-10-16T05:29:22.104Z,100557.91
2022-10-16T05:31:52.887Z,100546.09
2022-10-16T05:34:19.761Z,100547.53
2022-10-16T05:36:47.385Z,100543.56
2022-10-16T05:39:16.053Z,100562.41
2022-10-16T05:41:42.841Z,100557.97
2022-10-16T05:44:09.641Z,100566.19
2022-10-16T05:46:36.253Z,100569.00
2022-10-16T05:49:03.158Z,100575.25
2022-10-16T05:51:29.793Z,100570.94
2022-10-16T05:53:56.443Z,100575.16
2022-10-16T05:56:23.033Z,100581.97
2022-10-16T05:58:49.609Z,100576.53
2022-10-16T06:01:21.792Z,100580.88
2022-10-16T06:03:48.577Z,100593.50
2022-10-16T06:06:21.326Z,100590.88
2022-10-16T06:08:49.075Z,100600.16
2022-10-16T06:11:18.223Z,100601.88
2022-10-16T06:13:47.305Z,100599.94
2022-10-16T06:16:14.436Z,100598.66
2022-10-16T06:18:41.435Z,100604.84
2022-10-16T06:21:29.210Z,100613.72
2022-10-16T06:23:57.543Z,100620.91
2022-10-16T06:26:27.129Z,100613.63
2022-10-16T06:28:56.390Z,100624.72
2022-10-16T06:31:23.865Z,100620.91
2022-10-16T06:33:54.185Z,100629.13
2022-10-16T06:36:21.774Z,100626.78
2022-10-16T06:38:48.436Z,100636.97
2022-10-16T06:41:18.794Z,100632.94
2022-10-16T06:43:46.553Z,100637.09
2022-10-16T06:46:16.404Z,100646.00
2022-10-16T06:48:43.250Z,100648.50
2022-10-16T06:51:14.429Z,100645.81
2022-10-16T06:54:01.896Z,100651.59
2022-10-16T06:56:31.419Z,100657.66
2022-10-16T06:58:58.067Z,100659.88
2022-10-16T07:01:26.738Z,100671.13
2022-10-16T07:03:53.820Z,100673.13
2022-10-16T07:06:23.609Z,100680.00
2022-10-16T07:08:50.782Z,100668.78
2022-10-16T07:11:22.750Z,100676.28
2022-10-16T07:13:54.390Z,100676.47
2022-10-16T07:16:25.842Z,100682.44
2022-10-16T07:18:55.380Z,100678.06
2022-10-16T07:21:24.063Z,100676.00
2022-10-16T07:24:00.273Z,100683.84
2022-10-16T07:26:28.365Z,100683.03
2022-10-16T07:28:55.340Z,100692.38
2022-10-16T07:31:22.366Z,100685.09
2022-10-16T07:33:49.802Z,100685.25
2022-10-16T07:36:18.893Z,100700.16
2022-10-16T07:38:47.143Z,100689.94
2022-10-16T07:41:17.238Z,100685.78
2022-10-16T07:43:51.640Z,100680.34
2022-10-16T07:46:20.300Z,100687.09
2022-10-16T07:48:48.267Z,100683.94
2022-10-16T07:51:16.774Z,100690.84
2022-10-16T07:53:43.365Z,100698.56
2022-10-16T07:56:10.382Z,100696.31
2022-10-16T07:58:38.265Z,100699.13
2022-10-16T08:01:10.334Z,100697.41
2022-10-16T08:03:37.417Z,100692.22
2022-10-16T08:06:05.303Z,100698.00
2022-10-16T08:08:32.077Z,100714.34
2022-10-16T08:10:58.694Z,100712.91
2022-10-16T08:13:25.387Z,100707.84
2022-10-16T08:15:51.928Z,100711.81
2022-10-16T08:18:19.079Z,100719.91
2022-10-16T08:21:00.027Z,100721.13
2022-10-16T08:23:27.767Z,100723.94
2022-10-16T08:25:55.289Z,100721.03
2022-10-16T08:28:23.031Z,100721.66
2022-10-16T08:30:49.718Z,100717.84
2022-10-16T08:33:16.386Z,100712.63
2022-10-16T08:35:43.014Z,100733.00
2022-10-16T08:38:10.270Z,100726.09
2022-10-16T08:40:38.294Z,100730.53
2022-10-16T08:43:15.382Z,100726.34
2022-10-16T08:46:20.374Z,100730.88
2022-10-16T08:48:52.727Z,100736.66
2022-10-16T08:51:25.923Z,100733.28
2022-10-16T08:53:56.504Z,100724.97
2022-10-16T08:56:24.347Z,100735.66
2022-10-16T08:58:55.188Z,100731.47
2022-10-16T09:01:36.467Z,100740.34
2022-10-16T09:04:29.092Z,100734.94
2022-10-16T09:07:26.452Z,100739.41
2022-10-16T09:10:01.980Z,100741.28
2022-10-16T09:12:43.582Z,100732.31
2022-10-16T09:15:25.675Z,100738.88
2022-10-16T09:18:15.886Z,100739.22
2022-10-16T09:21:15.456Z,100747.41
2022-10-16T09:23:42.103Z,100740.59
2022-10-16T09:26:13.893Z,100743.91
2022-10-16T09:28:41.314Z,100747.78
2022-10-16T09:31:17.033Z,100742.66
2022-10-16T09:33:46.320Z,100745.13
2022-10-16T09:36:14.735Z,100740.16
2022-10-16T09:38:41.583Z,100735.53
2022-10-16T09:41:24.757Z,100748.19
2022-10-16T09:43:59.995Z,100746.22
2022-10-16T09:46:34.099Z,100748.50
2022-10-16T09:49:02.897Z,100748.25
2022-10-16T09:51:37.674Z,100742.59
2022-10-16T09:54:16.801Z,100754.44
2022-10-16T09:56:46.560Z,100750.88
2022-10-16T09:59:16.160Z,100753.16
2022-10-16T10:01:51.900Z,100749.78
2022-10-16T10:04:23.675Z,100757.22
2022-10-16T10:06:55.330Z,100748.34
2022-10-16T10:09:21.762Z,100767.53
2022-10-16T10:11:54.350Z,100763.53
2022-10-16T10:14:39.601Z,100764.38
2022-10-16T10:17:06.063Z,100765.78
2022-10-16T10:19:51.031Z,100766.09
2022-10-16T10:22:33.110Z,100761.44
2022-10-16T10:25:14.750Z,100761.69
2022-10-16T10:28:19.272Z,100744.47
2022-10-16T10:31:04.179Z,100751.91
2022-10-16T10:33:54.779Z,100749.03
2022-10-16T10:36:39.041Z,100747.75
2022-10-16T10:42:31.186Z,100744.28
2022-10-16T10:45:17.997Z,100737.16
2022-10-16T10:48:14.377Z,100738.13
2022-10-16T10:50:46.595Z,100735.34
2022-10-16T10:53:25.937Z,100740.13
2022-10-16T10:56:05.617Z,100738.63
2022-10-16T10:59:00.251Z,100739.66
2022-10-16T11:01:47.536Z,100742.44
2022-10-16T11:04:14.146Z,100740.09
2022-10-16T11:06:45.599Z,100743.00
2022-10-16T11:09:19.056Z,100739.50
2022-10-16T11:11:50.000Z,100731.16
2022-10-16T11:14:22.409Z,100723.75
2022-10-16T11:17:01.789Z,100722.59
2022-10-16T11:19:31.139Z,100714.38
2022-10-16T11:22:06.020Z,100722.38
2022-10-16T11:24:32.584Z,100714.28
2022-10-16T11:27:05.502Z,100714.28
2022-10-16T11:29:35.930Z,100716.69
2022-10-16T11:32:35.212Z,100719.44
2022-10-16T11:35:15.307Z,100710.41
2022-10-16T11:37:45.581Z,100710.81
2022-10-16T11:40:44.563Z,100717.88
2022-10-16T11:43:16.376Z,100713.94
2022-10-16T11:46:06.477Z,100714.50
2022-10-16T11:48:46.625Z,100711.25
2022-10-16T11:51:39.913Z,100707.94
2022-10-16T11:54:28.098Z,100699.50
2022-10-16T11:57:00.560Z,100701.19
2022-10-16T11:59:27.065Z,100702.78
2022-10-16T12:02:15.679Z,100708.78
2022-10-16T12:04:51.921Z,100703.75
2022-10-16T12:07:28.918Z,100699.59
2022-10-16T12:09:57.299Z,100706.25
2022-10-16T12:12:38.611Z,100705.44
2022-10-16T12:15:46.940Z,100707.44
2022-10-16T12:18:25.995Z,100701.09
2022-10-16T12:21:08.727Z,100699.25
2022-10-16T12:23:47.520Z,100698.91
2022-10-16T12:26:14.466Z,100703.75
2022-10-16T12:28:41.735Z,100711.16
2022-10-16T12:31:13.744Z,100706.31
2022-10-16T12:34:01.057Z,100699.56
2022-10-16T12:36:34.464Z,100700.59
2022-10-16T12:39:02.239Z,100694.59
2022-10-16T12:41:40.813Z,100702.44
2022-10-16T12:44:24.578Z,100698.34
2022-10-16T12:46:52.003Z,100696.88
2022-10-16T12:49:39.650Z,100711.75
2022-10-16T12:52:24.942Z,100708.13
2022-10-16T12:54:52.175Z,100699.75
2022-10-16T12:58:01.058Z,100702.78
2022-10-16T13:00:51.989Z,100704.38
2022-10-16T13:03:43.559Z,100703.38
2022-10-16T13:06:35.481Z,100709.56
2022-10-16T13:09:20.212Z,100711.47
2022-10-16T13:11:58.764Z,100706.22
2022-10-16T13:14:25.435Z,100715.72
2022-10-16T13:17:14.602Z,100712.66
2022-10-16T13:19:49.854Z,100720.03
2022-10-16T13:22:40.214Z,100713.72
2022-10-16T13:25:39.531Z,100718.56
2022-10-16T13:28:11.352Z,100721.56
2022-10-16T13:30:42.680Z,100719.88
2022-10-16T13:33:15.638Z,100725.69
2022-10-16T13:35:51.565Z,100725.44
2022-10-16T13:38:22.203Z,100715.09
2022-10-16T13:41:03.754Z,100728.94
2022-10-16T13:43:43.576Z,100730.81
2022-10-16T13:46:16.534Z,100728.09
2022-10-16T13:48:43.904Z,100713.72
2022-10-16T13:51:19.044Z,100719.47
2022-10-16T13:53:46.760Z,100715.13
2022-10-16T13:56:20.596Z,100721.59
2022-10-16T13:58:48.371Z,100717.72
2022-10-16T14:01:19.337Z,100721.66
2022-10-16T14:03:47.711Z,100721.53
2022-10-16T14:06:22.959Z,100728.09
2022-10-16T14:08:55.598Z,100728.00
2022-10-16T14:11:27.148Z,100717.94
2022-10-16T14:13:54.608Z,100735.16
2022-10-16T14:16:24.554Z,100736.28
2022-10-16T14:19:03.448Z,100737.72
2022-10-16T14:21:30.375Z,100736.53
2022-10-16T14:23:57.315Z,100734.88
2022-10-16T14:26:26.835Z,100738.69
2022-10-16T14:29:15.469Z,100738.09
2022-10-16T14:31:42.886Z,100739.13
2022-10-16T14:34:28.445Z,100728.69
2022-10-16T14:37:02.022Z,100739.38
2022-10-16T14:39:29.357Z,100729.34
2022-10-16T14:41:58.716Z,100736.94
2022-10-16T14:44:30.914Z,100735.94
2022-10-16T14:46:58.166Z,100734.66
2022-10-16T14:49:25.261Z,100738.34
2022-10-16T14:51:53.065Z,100739.06
2022-10-16T14:54:20.568Z,100731.19
2022-10-16T14:56:56.662Z,100733.84
2022-10-16T14:59:33.050Z,100737.13
2022-10-16T15:01:59.839Z,100734.84
2022-10-16T15:04:26.468Z,100746.00
2022-10-16T15:06:53.169Z,100741.88
2022-10-16T15:09:19.850Z,100744.47
2022-10-16T15:11:47.600Z,100749.56
2022-10-16T15:16:47.060Z,100753.19
2022-10-16T15:19:13.805Z,100741.41
2022-10-16T15:21:41.116Z,100749.19
2022-10-16T15:24:15.335Z,100753.47
2022-10-16T15:26:46.943Z,100752.34
2022-10-16T15:29:14.072Z,100748.19
2022-10-16T15:31:43.528Z,100748.97
2022-10-16T15:34:11.190Z,100749.19
2022-10-16T15:36:39.382Z,100756.25
2022-10-16T15:39:17.444Z,100745.59
2022-10-16T15:41:46.520Z,100754.44
2022-10-16T15:44:13.161Z,100756.47
2022-10-16T15:46:39.842Z,100770.66
2022-10-16T15:49:07.013Z,100769.28
2022-10-16T15:51:35.068Z,100767.03
2022-10-16T15:54:02.874Z,100764.38
2022-10-16T15:56:34.170Z,100780.25
2022-10-16T15:59:03.946Z,100782.13
2022-10-16T16:01:39.012Z,100786.59
2022-10-16T16:04:15.232Z,100785.03
2022-10-16T16:06:52.801Z,100785.63
2022-10-16T16:09:20.528Z,100795.41
2022-10-16T16:11:48.524Z,100794.28
2022-10-16T16:14:16.666Z,100801.56
2022-10-16T16:16:44.724Z,100802.75
2022-10-16T16:19:11.914Z,100806.50
2022-10-16T16:21:42.262Z,100814.25
2022-10-16T16:24:09.917Z,100817.75
2022-10-16T16:26:44.544Z,100815.66
2022-10-16T16:29:14.170Z,100821.47
2022-10-16T16:31:43.088Z,100818.97
2022-10-16T16:34:10.020Z,100822.75
2022-10-16T16:36:37.980Z,100827.41
2022-10-16T16:39:05.905Z,100820.50
2022-10-16T16:41:33.950Z,100824.75
2022-10-16T16:44:14.415Z,100832.13
2022-10-16T16:46:44.392Z,100832.81
2022-10-16T16:49:13.829Z,100835.91
2022-10-16T16:51:43.062Z,100834.56
2022-10-16T16:54:11.698Z,100838.66
2022-10-16T16:56:43.549Z,100837.63
2022-10-16T16:59:18.876Z,100842.09
2022-10-16T17:01:49.130Z,100849.91
2022-10-16T17:04:19.902Z,100850.59
2022-10-16T17:06:46.777Z,100854.66
2022-10-16T17:09:14.879Z,100865.88
2022-10-16T17:11:45.535Z,100860.09
2022-10-16T17:14:12.647Z,100865.19
2022-10-16T17:16:41.238Z,100869.28
2022-10-16T17:19:12.875Z,100868.25
2022-10-16T17:21:46.379Z,100877.41
2022-10-16T17:24:14.705Z,100879.81
2022-10-16T17:26:48.751Z,100884.56
2022-10-16T17:29:18.903Z,100880.81
2022-10-16T17:31:49.980Z,100887.75
2022-10-16T17:34:16.919Z,100898.13
2022-10-16T17:36:46.915Z,100887.59
2022-10-16T17:39:19.785Z,100893.84
2022-10-16T17:41:52.706Z,100895.72
2022-10-16T17:44:22.262Z,100905.88
2022-10-16T17:46:53.950Z,100903.66
2022-10-16T17:49:22.108Z,100894.84
2022-10-16T17:51:55.450Z,100903.47
2022-10-16T17:54:22.166Z,100904.13
2022-10-16T17:56:50.164Z,100910.22
2022-10-16T17:59:17.945Z,100904.28
2022-10-16T18:01:46.431Z,100918.84
2022-10-16T18:04:16.276Z,100923.75
2022-10-16T18:06:44.950Z,100918.63
2022-10-16T18:09:18.059Z,100915.56
2022-10-16T18:11:46.095Z,100920.63
2022-10-16T18:14:15.623Z,100923.66
2022-10-16T18:16:43.872Z,100934.81
2022-10-16T18:19:12.104Z,100926.66
2022-10-16T18:21:40.539Z,100934.94
2022-10-16T18:24:09.679Z,100929.00
2022-10-16T18:26:38.502Z,100932.72
2022-10-16T18:29:06.641Z,100940.19
2022-10-16T18:31:37.753Z,100931.66
2022-10-16T18:34:07.380Z,100937.06
2022-10-16T18:36:35.746Z,100941.50
2022-10-16T18:39:09.493Z,100946.25
2022-10-16T18:41:40.393Z,100948.25
2022-10-16T18:44:08.286Z,100954.69
2022-10-16T18:46:34.975Z,100954.00
2022-10-16T18:49:01.866Z,100952.31
2022-10-16T18:51:32.579Z,100952.63
2022-10-16T18:54:02.057Z,100951.78
2022-10-16T18:56:30.620Z,100954.34
2022-10-16T18:59:00.012Z,100960.41
2022-10-16T19:01:29.834Z,100960.72
2022-10-16T19:03:58.925Z,100958.84
2022-10-16T19:06:27.160Z,100965.25
2022-10-16T19:08:55.805Z,100966.44
2022-10-16T19:11:24.661Z,100975.22
2022-10-16T19:13:52.396Z,100976.53
2022-10-16T19:16:22.870Z,100971.41
2022-10-16T19:18:52.297Z,100976.47
2022-10-16T19:21:19.293Z,100981.47
2022-10-16T19:23:46.185Z,100988.94
2022-10-16T19:26:16.102Z,100990.09
2022-10-16T19:28:43.948Z,100987.84
2022-10-16T19:31:13.946Z,100991.88
2022-10-16T19:33:41.320Z,101002.50
2022-10-16T19:36:12.295Z,100998.22
2022-10-16T19:38:42.802Z,101004.53
2022-10-16T19:41:14.955Z,101000.88
2022-10-16T19:43:42.287Z,101002.66
2022-10-16T19:46:11.179Z,101012.69
2022-10-16T19:48:38.498Z,101013.91
2022-10-16T19:51:05.322Z,101016.91
2022-10-16T19:53:32.379Z,101018.25
2022-10-16T19:55:59.806Z,101030.56
2022-10-16T19:58:27.735Z,101028.00
2022-10-16T20:00:55.861Z,101025.59
2022-10-16T20:03:22.507Z,101022.59
2022-10-16T20:05:55.067Z,101026.31
2022-10-16T20:08:24.010Z,101037.28
2022-10-16T20:10:55.573Z,101022.59
2022-10-16T20:13:22.574Z,101035.44
2022-10-16T20:15:50.602Z,101040.69
2022-10-16T20:18:17.401Z,101038.81
2022-10-16T20:20:49.395Z,101034.28
2022-10-16T20:23:15.983Z,101038.81
2022-10-16T20:25:45.921Z,101033.41
2022-10-16T20:28:15.848Z,101034.44
2022-10-16T20:30:45.326Z,101042.56
2022-10-16T20:33:12.687Z,101035.44
2022-10-16T20:35:47.005Z,101040.00
2022-10-16T20:38:14.738Z,101046.84
2022-10-16T20:40:44.167Z,101045.75
2022-10-16T20:43:16.292Z,101040.91
2022-10-16T20:45:43.559Z,101041.50
2022-10-16T20:48:11.449Z,101050.88
2022-10-16T20:50:38.607Z,101055.16
2022-10-16T20:53:05.789Z,101055.44
2022-10-16T20:55:35.911Z,101051.19
2022-10-16T20:58:02.908Z,101057.75
2022-10-16T21:00:29.563Z,101059.75
2022-10-16T21:02:57.345Z,101063.69
2022-10-16T21:05:24.119Z,101065.53
2022-10-16T21:07:50.735Z,101079.66
2022-10-16T21:10:17.639Z,101075.53
2022-10-16T21:12:47.916Z,101074.22
2022-10-16T21:15:15.904Z,101078.19
2022-10-16T21:17:42.610Z,101084.44
2022-10-16T21:20:09.553Z,101076.88
2022-10-16T21:22:36.281Z,101080.88
2022-10-16T21:25:02.883Z,101083.84
2022-10-16T21:27:29.450Z,101081.88
2022-10-16T21:29:57.090Z,101086.28
2022-10-16T21:32:25.398Z,101087.25
2022-10-16T21:34:53.901Z,101088.44
2022-10-16T21:37:21.561Z,101092.72
2022-10-16T21:39:48.111Z,101093.56
2022-10-16T21:42:16.165Z,101096.72
2022-10-16T21:44:42.761Z,101099.84
2022-10-16T21:47:10.564Z,101103.25
2022-10-16T21:49:38.481Z,101099.56
2022-10-16T21:52:06.840Z,101101.28
2022-10-16T21:54:34.657Z,101106.69
2022-10-16T21:59:35.296Z,101114.34
2022-10-16T22:02:03.382Z,101095.59
2022-10-16T22:04:31.236Z,101106.41
2022-10-16T22:06:59.928Z,101108.38
2022-10-16T22:09:27.488Z,101113.78
2022-10-16T22:11:55.470Z,101111.81
2022-10-16T22:14:23.176Z,101110.09
2022-10-16T22:16:51.366Z,101106.41
2022-10-16T22:19:20.427Z,101110.09
2022-10-16T22:21:49.249Z,101101.84
2022-10-16T22:24:17.012Z,101107.38
2022-10-16T22:26:45.554Z,101107.53
2022-10-16T22:29:14.402Z,101107.66
2022-10-16T22:31:43.311Z,101112.38
2022-10-16T22:34:12.382Z,101109.66
2022-10-16T22:36:40.337Z,101105.53
2022-10-16T22:39:08.224Z,101111.22
2022-10-16T22:41:36.290Z,101113.22
2022-10-16T22:44:04.331Z,101114.34
2022-10-16T22:46:32.379Z,101110.94
2022-10-16T22:49:00.244Z,101112.75
2022-10-16T22:51:28.144Z,101114.63
2022-10-16T22:53:57.964Z,101112.91
2022-10-16T22:56:26.572Z,101125.56
2022-10-16T22:58:53.350Z,101124.59
2022-10-16T23:01:30.027Z,101130.00
2022-10-16T23:03:57.789Z,101130.97
2022-10-16T23:06:25.587Z,101129.38
2022-10-16T23:09:03.591Z,101139.50
2022-10-16T23:11:33.331Z,101136.94
2022-10-16T23:14:00.969Z,101134.50
2022-10-16T23:16:27.626Z,101132.78
2022-10-16T23:18:54.350Z,101138.19
2022-10-16T23:21:24.971Z,101147.03
2022-10-16T23:23:54.281Z,101138.19
2022-10-16T23:26:25.148Z,101143.88
2022-10-16T23:28:53.481Z,101147.88
2022-10-16T23:31:21.545Z,101149.81
2022-10-16T23:33:49.351Z,101146.69
2022-10-16T23:36:19.582Z,101154.09
2022-10-16T23:38:47.099Z,101166.59
2022-10-16T23:41:16.669Z,101163.16
2022-10-16T23:43:45.238Z,101165.44
2022-10-16T23:46:14.375Z,101174.53
2022-10-16T23:48:42.691Z,101164.00
2022-10-16T23:51:10.373Z,101166.25
2022-10-16T23:53:38.881Z,101168.53
2022-10-16T23:56:06.932Z,101172.47
2022-10-16T23:58:34.659Z,101174.72
